Accueil
METAR-TAF:

METAR-TAF

Aéroports :

Tarawa, Kiribati

Aéroport international de Bonriki

latitude: 01-21N, longitude: 172-55E, altitude: 2 m

Observation

Le bulletin a été fait il y a 48 minutes, à 06:00 UTC
Vent 12 kt de est
Température 30°C
Humidité 70%
Pression 1008 hPa
Visibilité 10 km ou plus
Nuages épars à une hauteur de 2000 ft

METAR: NGTA 240600Z 09012KT 9999 SCT020 30/24 Q1008

Heure: 20:48 (06:48 UTC)

Prévision

Le bulletin a été fait il y a 1 heure et 35 minutes, à 05:13 UTC
Prévision valable du 24 à 06 UTC au 25 à 06 UTC
Vent 15 kt de est
Visibilité 10 km ou plus
Nuages épars à une hauteur de 2000 ft

TAF: NGTA 240513Z 2406/2506 10015KT 9999 SCT020

Observations et prévisions météorologiques de plus de 4000 aéroports (messages METAR et TAF).

Les stations disponibles sont représentées par des disques jaunes et rouges sur la carte.

Passer la souris dessus pour voir le nom de la station.

Cliquer dessus pour voir les observations et prévisions météorologiques.

Pour changer de carte: cliquez sur les boutons verts avec une croix noire pour zoomer, sur le bouton vert avec un tiret pour effectuer un zoom arrière, ou sur les flèches vertes pour les cartes adjacentes.


METAR-TAF: